aviador You're here:

SAZM Decoded Metar

MAR DEL PLATA in ARGENTINA
Report Time2017-09-23 09:00:00
UTC Time2017-09-23 09:13:45
Flight Rules vfr VFR
Wind230° at 04 kt
W.Decomp.*RWY 31: 1.1 kt HW 3.8 kt LCW
W.Rank230° ranks 3
Current wind is below 230° avg. (7.9)
Visibility9999 m
Phenomena:N/A
Clouds:N/A
Expected CloudBase > 1,600 ft AGL from Temp-Dew spread
CeilingNone
Temp09°C (ISA -6)
Dew Point05°C (76% RH)
AAT6.4°C
QNH1021 hPa
Density Alt-784 ft
Elevation69 ft
Report Wrong Elevation
Raw Report
SAZM 230900Z 23004KT CAVOK 09/05 Q1021=

Extra information for SAZM:More info

Metar Taf Metar & Taf Last 4 Metars F.Rules Stats Wind Profile Meteogram Temp Stats Airport Information Weather charts Add Link Nearby VenuesMetar ALERT Operation Metar Decoded Social comments